sensor_id;sensor_type;location;lat;lon;timestamp;P1;durP1;ratioP1;P2;durP2;ratioP2
70049;SDS011;57391;51.306;22.680;2023-03-31T00:01:09;12.30;;;7.30;;
70049;SDS011;57391;51.306;22.680;2023-03-31T00:03:37;12.30;;;6.70;;
70049;SDS011;57391;51.306;22.680;2023-03-31T00:06:11;12.30;;;7.30;;
70049;SDS011;57391;51.306;22.680;2023-03-31T00:08:43;12.60;;;6.40;;
70049;SDS011;57391;51.306;22.680;2023-03-31T00:11:11;11.40;;;5.90;;
70049;SDS011;57391;51.306;22.680;2023-03-31T00:13:38;10.70;;;6.60;;
70049;SDS011;57391;51.306;22.680;2023-03-31T00:16:08;11.50;;;7.10;;
70049;SDS011;57391;51.306;22.680;2023-03-31T00:18:36;10.40;;;6.40;;
70049;SDS011;57391;51.306;22.680;2023-03-31T00:21:13;11.30;;;6.80;;
70049;SDS011;57391;51.306;22.680;2023-03-31T00:23:54;13.20;;;7.40;;
70049;SDS011;57391;51.306;22.680;2023-03-31T00:26:23;9.90;;;6.50;;
70049;SDS011;57391;51.306;22.680;2023-03-31T00:28:52;10.20;;;6.20;;
70049;SDS011;57391;51.306;22.680;2023-03-31T00:31:20;10.20;;;6.00;;
70049;SDS011;57391;51.306;22.680;2023-03-31T00:33:49;11.00;;;6.80;;
70049;SDS011;57391;51.306;22.680;2023-03-31T00:36:16;12.60;;;7.00;;
70049;SDS011;57391;51.306;22.680;2023-03-31T00:38:47;11.70;;;6.10;;
70049;SDS011;57391;51.306;22.680;2023-03-31T00:41:14;9.90;;;6.10;;
70049;SDS011;57391;51.306;22.680;2023-03-31T00:49:18;11.90;;;5.90;;
70049;SDS011;57391;51.306;22.680;2023-03-31T00:52:05;12.50;;;7.10;;
70049;SDS011;57391;51.306;22.680;2023-03-31T00:54:37;13.20;;;6.50;;
70049;SDS011;57391;51.306;22.680;2023-03-31T00:57:06;11.20;;;7.00;;
70049;SDS011;57391;51.306;22.680;2023-03-31T00:59:37;9.90;;;6.00;;
70049;SDS011;57391;51.306;22.680;2023-03-31T01:02:11;13.90;;;7.10;;
70049;SDS011;57391;51.306;22.680;2023-03-31T01:04:50;12.20;;;6.50;;
70049;SDS011;57391;51.306;22.680;2023-03-31T01:07:28;12.70;;;7.10;;
70049;SDS011;57391;51.306;22.680;2023-03-31T01:10:01;12.20;;;6.90;;
70049;SDS011;57391;51.306;22.680;2023-03-31T01:12:33;12.30;;;6.40;;
70049;SDS011;57391;51.306;22.680;2023-03-31T01:15:05;11.80;;;7.20;;
70049;SDS011;57391;51.306;22.680;2023-03-31T01:17:34;16.10;;;7.30;;
70049;SDS011;57391;51.306;22.680;2023-03-31T01:20:22;12.40;;;6.60;;
70049;SDS011;57391;51.306;22.680;2023-03-31T01:47:01;13.40;;;7.30;;
70049;SDS011;57391;51.306;22.680;2023-03-31T01:49:38;12.60;;;7.70;;
70049;SDS011;57391;51.306;22.680;2023-03-31T01:55:08;14.60;;;8.30;;
70049;SDS011;57391;51.306;22.680;2023-03-31T02:00:43;14.90;;;9.10;;
70049;SDS011;57391;51.306;22.680;2023-03-31T02:03:25;17.20;;;8.90;;
70049;SDS011;57391;51.306;22.680;2023-03-31T02:05:59;14.50;;;8.00;;
70049;SDS011;57391;51.306;22.680;2023-03-31T02:08:42;15.40;;;8.20;;
70049;SDS011;57391;51.306;22.680;2023-03-31T02:11:32;17.30;;;9.50;;
70049;SDS011;57391;51.306;22.680;2023-03-31T02:14:03;13.90;;;9.00;;
70049;SDS011;57391;51.306;22.680;2023-03-31T02:16:38;18.00;;;10.70;;
70049;SDS011;57391;51.306;22.680;2023-03-31T02:19:15;43.20;;;10.90;;
70049;SDS011;57391;51.306;22.680;2023-03-31T02:21:46;16.10;;;9.60;;
70049;SDS011;57391;51.306;22.680;2023-03-31T02:24:17;15.30;;;9.50;;
70049;SDS011;57391;51.306;22.680;2023-03-31T02:26:58;17.30;;;10.60;;
70049;SDS011;57391;51.306;22.680;2023-03-31T02:29:32;15.80;;;10.60;;
70049;SDS011;57391;51.306;22.680;2023-03-31T02:32:10;17.60;;;10.80;;
70049;SDS011;57391;51.306;22.680;2023-03-31T02:34:43;18.70;;;10.10;;
70049;SDS011;57391;51.306;22.680;2023-03-31T02:37:12;15.80;;;9.40;;
70049;SDS011;57391;51.306;22.680;2023-03-31T02:39:44;18.60;;;12.00;;
70049;SDS011;57391;51.306;22.680;2023-03-31T02:42:14;18.80;;;11.70;;
70049;SDS011;57391;51.306;22.680;2023-03-31T02:44:42;19.90;;;12.30;;
70049;SDS011;57391;51.306;22.680;2023-03-31T02:47:12;20.70;;;12.10;;
70049;SDS011;57391;51.306;22.680;2023-03-31T02:49:51;19.30;;;11.70;;
70049;SDS011;57391;51.306;22.680;2023-03-31T02:52:27;19.90;;;12.10;;
70049;SDS011;57391;51.306;22.680;2023-03-31T02:58:45;20.70;;;12.10;;
70049;SDS011;57391;51.306;22.680;2023-03-31T03:01:19;18.50;;;11.20;;
70049;SDS011;57391;51.306;22.680;2023-03-31T03:07:25;18.40;;;11.90;;
70049;SDS011;57391;51.306;22.680;2023-03-31T03:15:44;19.00;;;12.70;;
70049;SDS011;57391;51.306;22.680;2023-03-31T03:18:15;20.70;;;12.40;;
70049;SDS011;57391;51.306;22.680;2023-03-31T03:20:43;20.10;;;12.40;;
70049;SDS011;57391;51.306;22.680;2023-03-31T03:23:16;21.20;;;13.20;;
70049;SDS011;57391;51.306;22.680;2023-03-31T03:25:44;22.50;;;14.30;;
70049;SDS011;57391;51.306;22.680;2023-03-31T03:28:12;21.30;;;13.70;;
70049;SDS011;57391;51.306;22.680;2023-03-31T03:30:39;20.80;;;12.00;;
70049;SDS011;57391;51.306;22.680;2023-03-31T03:33:07;24.30;;;13.50;;
70049;SDS011;57391;51.306;22.680;2023-03-31T03:35:35;19.00;;;12.40;;
70049;SDS011;57391;51.306;22.680;2023-03-31T03:38:02;24.00;;;14.30;;
70049;SDS011;57391;51.306;22.680;2023-03-31T03:40:29;21.10;;;14.30;;
70049;SDS011;57391;51.306;22.680;2023-03-31T03:42:56;22.80;;;13.10;;
70049;SDS011;57391;51.306;22.680;2023-03-31T03:45:23;22.10;;;13.10;;
70049;SDS011;57391;51.306;22.680;2023-03-31T03:47:51;21.30;;;14.10;;
70049;SDS011;57391;51.306;22.680;2023-03-31T03:50:18;22.10;;;14.40;;
70049;SDS011;57391;51.306;22.680;2023-03-31T03:52:45;20.90;;;14.20;;
70049;SDS011;57391;51.306;22.680;2023-03-31T03:55:12;23.40;;;14.70;;
70049;SDS011;57391;51.306;22.680;2023-03-31T03:57:39;23.40;;;13.90;;
70049;SDS011;57391;51.306;22.680;2023-03-31T04:00:07;21.70;;;12.90;;
70049;SDS011;57391;51.306;22.680;2023-03-31T04:02:38;21.80;;;14.20;;
70049;SDS011;57391;51.306;22.680;2023-03-31T04:05:06;22.80;;;13.10;;
70049;SDS011;57391;51.306;22.680;2023-03-31T04:07:34;21.00;;;12.90;;
70049;SDS011;57391;51.306;22.680;2023-03-31T04:10:01;23.40;;;14.20;;
70049;SDS011;57391;51.306;22.680;2023-03-31T04:12:28;21.30;;;12.90;;
70049;SDS011;57391;51.306;22.680;2023-03-31T04:14:55;23.10;;;14.30;;
70049;SDS011;57391;51.306;22.680;2023-03-31T04:17:26;21.90;;;13.00;;
70049;SDS011;57391;51.306;22.680;2023-03-31T04:20:06;22.00;;;13.50;;
70049;SDS011;57391;51.306;22.680;2023-03-31T04:22:36;21.80;;;14.10;;
70049;SDS011;57391;51.306;22.680;2023-03-31T04:25:08;22.20;;;13.70;;
70049;SDS011;57391;51.306;22.680;2023-03-31T04:27:46;23.10;;;14.00;;
70049;SDS011;57391;51.306;22.680;2023-03-31T04:30:25;20.30;;;12.90;;
70049;SDS011;57391;51.306;22.680;2023-03-31T04:33:01;20.60;;;13.50;;
70049;SDS011;57391;51.306;22.680;2023-03-31T04:35:30;17.10;;;11.50;;
70049;SDS011;57391;51.306;22.680;2023-03-31T04:38:22;21.70;;;13.30;;
70049;SDS011;57391;51.306;22.680;2023-03-31T04:40:51;21.40;;;13.50;;
70049;SDS011;57391;51.306;22.680;2023-03-31T04:43:20;22.00;;;14.20;;
70049;SDS011;57391;51.306;22.680;2023-03-31T04:45:48;21.70;;;13.40;;
70049;SDS011;57391;51.306;22.680;2023-03-31T04:48:15;22.00;;;14.00;;
70049;SDS011;57391;51.306;22.680;2023-03-31T04:50:45;20.80;;;12.90;;
70049;SDS011;57391;51.306;22.680;2023-03-31T04:53:12;19.70;;;12.70;;
70049;SDS011;57391;51.306;22.680;2023-03-31T04:55:39;20.60;;;12.80;;
70049;SDS011;57391;51.306;22.680;2023-03-31T04:58:06;22.40;;;14.00;;
70049;SDS011;57391;51.306;22.680;2023-03-31T05:00:34;20.40;;;13.50;;
70049;SDS011;57391;51.306;22.680;2023-03-31T05:03:01;22.00;;;14.80;;
70049;SDS011;57391;51.306;22.680;2023-03-31T05:05:28;24.70;;;15.90;;
70049;SDS011;57391;51.306;22.680;2023-03-31T05:07:56;20.40;;;13.20;;
70049;SDS011;57391;51.306;22.680;2023-03-31T05:10:23;24.60;;;14.70;;
70049;SDS011;57391;51.306;22.680;2023-03-31T05:12:51;19.30;;;12.70;;
70049;SDS011;57391;51.306;22.680;2023-03-31T05:15:18;21.40;;;13.70;;
70049;SDS011;57391;51.306;22.680;2023-03-31T05:17:46;19.00;;;12.60;;
70049;SDS011;57391;51.306;22.680;2023-03-31T05:20:13;22.00;;;13.40;;
70049;SDS011;57391;51.306;22.680;2023-03-31T05:22:41;20.50;;;12.30;;
70049;SDS011;57391;51.306;22.680;2023-03-31T05:25:11;21.00;;;12.60;;
70049;SDS011;57391;51.306;22.680;2023-03-31T05:27:47;18.60;;;11.80;;
70049;SDS011;57391;51.306;22.680;2023-03-31T05:30:17;20.00;;;13.30;;
70049;SDS011;57391;51.306;22.680;2023-03-31T05:32:44;21.10;;;12.90;;
70049;SDS011;57391;51.306;22.680;2023-03-31T05:35:11;20.20;;;11.80;;
70049;SDS011;57391;51.306;22.680;2023-03-31T05:37:38;20.60;;;12.90;;
70049;SDS011;57391;51.306;22.680;2023-03-31T05:40:06;19.80;;;12.40;;
70049;SDS011;57391;51.306;22.680;2023-03-31T05:42:35;17.50;;;11.60;;
70049;SDS011;57391;51.306;22.680;2023-03-31T05:45:03;18.10;;;12.30;;
70049;SDS011;57391;51.306;22.680;2023-03-31T05:47:31;19.30;;;12.40;;
70049;SDS011;57391;51.306;22.680;2023-03-31T05:49:58;20.60;;;12.20;;
70049;SDS011;57391;51.306;22.680;2023-03-31T05:52:26;18.60;;;11.30;;
70049;SDS011;57391;51.306;22.680;2023-03-31T05:54:53;18.00;;;10.70;;
70049;SDS011;57391;51.306;22.680;2023-03-31T05:57:20;19.60;;;11.40;;
70049;SDS011;57391;51.306;22.680;2023-03-31T05:59:47;16.80;;;11.00;;
70049;SDS011;57391;51.306;22.680;2023-03-31T06:02:14;16.00;;;9.80;;
70049;SDS011;57391;51.306;22.680;2023-03-31T06:04:42;17.90;;;10.40;;
70049;SDS011;57391;51.306;22.680;2023-03-31T06:07:09;17.20;;;10.40;;
70049;SDS011;57391;51.306;22.680;2023-03-31T06:09:37;17.70;;;10.00;;
70049;SDS011;57391;51.306;22.680;2023-03-31T06:12:04;15.30;;;9.80;;
70049;SDS011;57391;51.306;22.680;2023-03-31T06:14:32;13.30;;;8.40;;
70049;SDS011;57391;51.306;22.680;2023-03-31T06:16:59;15.70;;;9.80;;
70049;SDS011;57391;51.306;22.680;2023-03-31T06:19:26;14.10;;;9.10;;
70049;SDS011;57391;51.306;22.680;2023-03-31T06:21:54;14.00;;;8.50;;
70049;SDS011;57391;51.306;22.680;2023-03-31T06:24:21;13.50;;;9.00;;
70049;SDS011;57391;51.306;22.680;2023-03-31T06:26:48;13.70;;;8.60;;
70049;SDS011;57391;51.306;22.680;2023-03-31T06:29:15;12.60;;;8.20;;
70049;SDS011;57391;51.306;22.680;2023-03-31T06:31:43;13.20;;;8.70;;
70049;SDS011;57391;51.306;22.680;2023-03-31T06:34:12;13.60;;;8.60;;
70049;SDS011;57391;51.306;22.680;2023-03-31T06:36:39;12.80;;;8.80;;
70049;SDS011;57391;51.306;22.680;2023-03-31T06:39:07;12.00;;;8.00;;
70049;SDS011;57391;51.306;22.680;2023-03-31T06:41:34;11.50;;;8.10;;
70049;SDS011;57391;51.306;22.680;2023-03-31T06:44:06;13.80;;;8.70;;
70049;SDS011;57391;51.306;22.680;2023-03-31T06:46:33;14.10;;;8.10;;
70049;SDS011;57391;51.306;22.680;2023-03-31T06:49:00;12.20;;;8.30;;
70049;SDS011;57391;51.306;22.680;2023-03-31T06:51:28;13.40;;;6.90;;
70049;SDS011;57391;51.306;22.680;2023-03-31T06:53:54;12.60;;;8.00;;
70049;SDS011;57391;51.306;22.680;2023-03-31T06:56:22;11.30;;;7.60;;
70049;SDS011;57391;51.306;22.680;2023-03-31T06:58:49;13.20;;;8.20;;
70049;SDS011;57391;51.306;22.680;2023-03-31T07:01:16;11.80;;;7.50;;
70049;SDS011;57391;51.306;22.680;2023-03-31T07:03:43;11.60;;;6.80;;
70049;SDS011;57391;51.306;22.680;2023-03-31T07:06:10;10.30;;;6.80;;
70049;SDS011;57391;51.306;22.680;2023-03-31T07:08:37;11.70;;;7.00;;
70049;SDS011;57391;51.306;22.680;2023-03-31T07:11:04;10.60;;;6.50;;
70049;SDS011;57391;51.306;22.680;2023-03-31T07:13:31;12.60;;;7.10;;
70049;SDS011;57391;51.306;22.680;2023-03-31T07:15:58;9.30;;;6.50;;
70049;SDS011;57391;51.306;22.680;2023-03-31T07:18:26;9.90;;;6.40;;
70049;SDS011;57391;51.306;22.680;2023-03-31T07:20:57;11.00;;;7.20;;
70049;SDS011;57391;51.306;22.680;2023-03-31T07:23:26;11.30;;;6.60;;
70049;SDS011;57391;51.306;22.680;2023-03-31T07:25:53;9.40;;;5.60;;
70049;SDS011;57391;51.306;22.680;2023-03-31T07:28:21;9.80;;;5.10;;
70049;SDS011;57391;51.306;22.680;2023-03-31T07:30:48;9.10;;;5.70;;
70049;SDS011;57391;51.306;22.680;2023-03-31T07:33:15;10.90;;;5.80;;
70049;SDS011;57391;51.306;22.680;2023-03-31T07:35:42;10.50;;;6.10;;
70049;SDS011;57391;51.306;22.680;2023-03-31T07:38:12;10.00;;;5.50;;
70049;SDS011;57391;51.306;22.680;2023-03-31T07:40:40;10.80;;;6.00;;
70049;SDS011;57391;51.306;22.680;2023-03-31T07:43:11;11.00;;;6.40;;
70049;SDS011;57391;51.306;22.680;2023-03-31T07:45:39;11.20;;;6.20;;
70049;SDS011;57391;51.306;22.680;2023-03-31T07:48:06;10.60;;;6.90;;
70049;SDS011;57391;51.306;22.680;2023-03-31T07:50:33;9.30;;;6.20;;
70049;SDS011;57391;51.306;22.680;2023-03-31T07:53:01;11.40;;;6.80;;
70049;SDS011;57391;51.306;22.680;2023-03-31T07:55:29;9.80;;;6.60;;
70049;SDS011;57391;51.306;22.680;2023-03-31T07:57:56;11.30;;;6.50;;
70049;SDS011;57391;51.306;22.680;2023-03-31T08:00:23;9.30;;;6.10;;
70049;SDS011;57391;51.306;22.680;2023-03-31T08:02:50;12.50;;;7.10;;
70049;SDS011;57391;51.306;22.680;2023-03-31T08:05:19;10.10;;;6.60;;
70049;SDS011;57391;51.306;22.680;2023-03-31T08:07:48;10.80;;;6.80;;
70049;SDS011;57391;51.306;22.680;2023-03-31T08:10:20;12.80;;;7.10;;
70049;SDS011;57391;51.306;22.680;2023-03-31T08:12:50;13.30;;;7.30;;
70049;SDS011;57391;51.306;22.680;2023-03-31T08:15:18;13.10;;;7.40;;
70049;SDS011;57391;51.306;22.680;2023-03-31T08:17:45;11.90;;;7.10;;
70049;SDS011;57391;51.306;22.680;2023-03-31T08:20:12;10.10;;;6.60;;
70049;SDS011;57391;51.306;22.680;2023-03-31T08:22:39;11.20;;;6.80;;
70049;SDS011;57391;51.306;22.680;2023-03-31T08:25:08;9.80;;;6.10;;
70049;SDS011;57391;51.306;22.680;2023-03-31T08:27:38;12.10;;;6.70;;
70049;SDS011;57391;51.306;22.680;2023-03-31T08:30:09;9.90;;;6.80;;
70049;SDS011;57391;51.306;22.680;2023-03-31T08:32:37;11.70;;;7.10;;
70049;SDS011;57391;51.306;22.680;2023-03-31T08:35:05;12.80;;;6.30;;
70049;SDS011;57391;51.306;22.680;2023-03-31T08:37:33;10.80;;;6.10;;
70049;SDS011;57391;51.306;22.680;2023-03-31T08:40:01;11.70;;;6.10;;
70049;SDS011;57391;51.306;22.680;2023-03-31T08:42:40;13.60;;;6.20;;
70049;SDS011;57391;51.306;22.680;2023-03-31T08:45:33;13.70;;;6.80;;
70049;SDS011;57391;51.306;22.680;2023-03-31T08:51:33;11.90;;;6.10;;
70049;SDS011;57391;51.306;22.680;2023-03-31T08:54:10;10.30;;;6.00;;
70049;SDS011;57391;51.306;22.680;2023-03-31T08:56:43;11.90;;;6.10;;
70049;SDS011;57391;51.306;22.680;2023-03-31T08:59:21;9.50;;;5.50;;
70049;SDS011;57391;51.306;22.680;2023-03-31T09:02:00;9.40;;;5.20;;
70049;SDS011;57391;51.306;22.680;2023-03-31T09:10:17;10.10;;;5.90;;
70049;SDS011;57391;51.306;22.680;2023-03-31T09:13:22;10.30;;;5.60;;
70049;SDS011;57391;51.306;22.680;2023-03-31T09:18:51;10.10;;;5.70;;
70049;SDS011;57391;51.306;22.680;2023-03-31T09:21:28;9.20;;;5.00;;
70049;SDS011;57391;51.306;22.680;2023-03-31T09:24:04;10.40;;;5.70;;
70049;SDS011;57391;51.306;22.680;2023-03-31T09:29:20;11.40;;;5.90;;
70049;SDS011;57391;51.306;22.680;2023-03-31T09:31:52;9.90;;;5.90;;
70049;SDS011;57391;51.306;22.680;2023-03-31T09:34:31;10.30;;;6.00;;
70049;SDS011;57391;51.306;22.680;2023-03-31T09:37:00;10.30;;;5.70;;
70049;SDS011;57391;51.306;22.680;2023-03-31T09:39:27;8.60;;;5.20;;
70049;SDS011;57391;51.306;22.680;2023-03-31T09:41:54;9.20;;;5.30;;
70049;SDS011;57391;51.306;22.680;2023-03-31T09:46:58;9.00;;;5.40;;
70049;SDS011;57391;51.306;22.680;2023-03-31T09:49:33;11.10;;;6.10;;
70049;SDS011;57391;51.306;22.680;2023-03-31T09:54:55;11.90;;;5.70;;
70049;SDS011;57391;51.306;22.680;2023-03-31T09:57:34;10.40;;;5.60;;
70049;SDS011;57391;51.306;22.680;2023-03-31T10:02:49;11.00;;;5.90;;
70049;SDS011;57391;51.306;22.680;2023-03-31T10:05:33;9.80;;;5.80;;
70049;SDS011;57391;51.306;22.680;2023-03-31T10:08:30;9.80;;;6.20;;
70049;SDS011;57391;51.306;22.680;2023-03-31T10:13:50;12.60;;;6.30;;
70049;SDS011;57391;51.306;22.680;2023-03-31T10:16:31;10.00;;;6.10;;
70049;SDS011;57391;51.306;22.680;2023-03-31T10:19:29;12.30;;;5.90;;
70049;SDS011;57391;51.306;22.680;2023-03-31T10:22:03;11.20;;;6.70;;
70049;SDS011;57391;51.306;22.680;2023-03-31T10:24:38;10.30;;;5.90;;
70049;SDS011;57391;51.306;22.680;2023-03-31T10:27:28;8.50;;;5.40;;
70049;SDS011;57391;51.306;22.680;2023-03-31T10:29:58;9.30;;;5.50;;
70049;SDS011;57391;51.306;22.680;2023-03-31T10:32:32;9.80;;;5.40;;
70049;SDS011;57391;51.306;22.680;2023-03-31T10:38:02;10.60;;;4.90;;
70049;SDS011;57391;51.306;22.680;2023-03-31T10:40:33;9.80;;;5.10;;
70049;SDS011;57391;51.306;22.680;2023-03-31T10:43:08;6.60;;;3.90;;
70049;SDS011;57391;51.306;22.680;2023-03-31T10:45:49;7.50;;;4.60;;
70049;SDS011;57391;51.306;22.680;2023-03-31T10:48:33;7.80;;;3.90;;
70049;SDS011;57391;51.306;22.680;2023-03-31T10:51:04;9.70;;;4.40;;
70049;SDS011;57391;51.306;22.680;2023-03-31T10:53:49;7.70;;;4.00;;
70049;SDS011;57391;51.306;22.680;2023-03-31T10:56:37;7.60;;;3.90;;
70049;SDS011;57391;51.306;22.680;2023-03-31T11:13:20;6.20;;;3.70;;
70049;SDS011;57391;51.306;22.680;2023-03-31T11:19:00;6.60;;;2.90;;
70049;SDS011;57391;51.306;22.680;2023-03-31T11:22:15;7.50;;;2.80;;
70049;SDS011;57391;51.306;22.680;2023-03-31T11:25:37;7.30;;;3.30;;
70049;SDS011;57391;51.306;22.680;2023-03-31T11:28:20;6.90;;;3.10;;
70049;SDS011;57391;51.306;22.680;2023-03-31T11:42:38;7.70;;;2.90;;
70049;SDS011;57391;51.306;22.680;2023-03-31T11:45:30;6.50;;;2.70;;
70049;SDS011;57391;51.306;22.680;2023-03-31T11:48:06;7.70;;;2.80;;
70049;SDS011;57391;51.306;22.680;2023-03-31T11:50:44;7.80;;;2.90;;
70049;SDS011;57391;51.306;22.680;2023-03-31T11:53:19;6.50;;;3.40;;
70049;SDS011;57391;51.306;22.680;2023-03-31T11:55:53;9.20;;;3.10;;
70049;SDS011;57391;51.306;22.680;2023-03-31T11:58:38;8.10;;;3.40;;
70049;SDS011;57391;51.306;22.680;2023-03-31T12:02:19;6.80;;;3.40;;
70049;SDS011;57391;51.306;22.680;2023-03-31T12:04:41;8.20;;;3.20;;
70049;SDS011;57391;51.306;22.680;2023-03-31T12:07:23;6.10;;;3.10;;
70049;SDS011;57391;51.306;22.680;2023-03-31T12:13:04;8.40;;;3.70;;
70049;SDS011;57391;51.306;22.680;2023-03-31T12:15:37;7.10;;;3.60;;
70049;SDS011;57391;51.306;22.680;2023-03-31T12:18:12;11.20;;;3.60;;
70049;SDS011;57391;51.306;22.680;2023-03-31T12:20:49;5.40;;;2.80;;
70049;SDS011;57391;51.306;22.680;2023-03-31T12:23:22;8.20;;;3.30;;
70049;SDS011;57391;51.306;22.680;2023-03-31T12:28:41;7.70;;;3.50;;
70049;SDS011;57391;51.306;22.680;2023-03-31T12:31:17;7.70;;;4.00;;
70049;SDS011;57391;51.306;22.680;2023-03-31T12:34:03;8.10;;;4.20;;
70049;SDS011;57391;51.306;22.680;2023-03-31T12:42:55;9.30;;;5.40;;
70049;SDS011;57391;51.306;22.680;2023-03-31T12:48:50;9.80;;;5.10;;
70049;SDS011;57391;51.306;22.680;2023-03-31T12:57:22;10.60;;;5.70;;
70049;SDS011;57391;51.306;22.680;2023-03-31T13:00:25;10.10;;;6.10;;
70049;SDS011;57391;51.306;22.680;2023-03-31T13:06:09;11.20;;;6.60;;
70049;SDS011;57391;51.306;22.680;2023-03-31T13:09:04;13.70;;;6.80;;
70049;SDS011;57391;51.306;22.680;2023-03-31T13:11:39;12.50;;;7.10;;
70049;SDS011;57391;51.306;22.680;2023-03-31T13:17:12;9.90;;;5.10;;
70049;SDS011;57391;51.306;22.680;2023-03-31T13:19:47;10.50;;;5.60;;
70049;SDS011;57391;51.306;22.680;2023-03-31T13:22:34;10.20;;;4.40;;
70049;SDS011;57391;51.306;22.680;2023-03-31T13:28:17;10.30;;;4.00;;
70049;SDS011;57391;51.306;22.680;2023-03-31T13:33:34;6.70;;;3.80;;
70049;SDS011;57391;51.306;22.680;2023-03-31T13:47:49;9.70;;;3.50;;
70049;SDS011;57391;51.306;22.680;2023-03-31T14:05:22;9.40;;;4.10;;
70049;SDS011;57391;51.306;22.680;2023-03-31T14:10:49;8.30;;;3.50;;
70049;SDS011;57391;51.306;22.680;2023-03-31T14:13:18;8.00;;;3.80;;
70049;SDS011;57391;51.306;22.680;2023-03-31T14:15:54;8.90;;;3.70;;
70049;SDS011;57391;51.306;22.680;2023-03-31T14:18:27;7.90;;;3.40;;
70049;SDS011;57391;51.306;22.680;2023-03-31T14:32:25;19.70;;;9.40;;
70049;SDS011;57391;51.306;22.680;2023-03-31T14:38:27;8.00;;;3.10;;
70049;SDS011;57391;51.306;22.680;2023-03-31T14:40:56;5.70;;;3.00;;
70049;SDS011;57391;51.306;22.680;2023-03-31T14:43:29;8.40;;;3.20;;
70049;SDS011;57391;51.306;22.680;2023-03-31T14:46:03;7.90;;;3.30;;
70049;SDS011;57391;51.306;22.680;2023-03-31T14:48:36;7.20;;;3.30;;
70049;SDS011;57391;51.306;22.680;2023-03-31T14:51:13;7.30;;;2.90;;
70049;SDS011;57391;51.306;22.680;2023-03-31T14:53:43;7.90;;;3.20;;
70049;SDS011;57391;51.306;22.680;2023-03-31T14:56:13;8.70;;;2.80;;
70049;SDS011;57391;51.306;22.680;2023-03-31T14:58:49;9.60;;;4.10;;
70049;SDS011;57391;51.306;22.680;2023-03-31T15:01:23;10.30;;;3.30;;
70049;SDS011;57391;51.306;22.680;2023-03-31T15:03:54;7.20;;;3.30;;
70049;SDS011;57391;51.306;22.680;2023-03-31T15:06:25;17.40;;;7.40;;
70049;SDS011;57391;51.306;22.680;2023-03-31T15:08:56;11.80;;;5.30;;
70049;SDS011;57391;51.306;22.680;2023-03-31T15:11:24;11.10;;;4.30;;
70049;SDS011;57391;51.306;22.680;2023-03-31T15:13:55;9.10;;;4.10;;
70049;SDS011;57391;51.306;22.680;2023-03-31T15:16:42;11.60;;;4.70;;
70049;SDS011;57391;51.306;22.680;2023-03-31T15:19:22;11.10;;;4.60;;
70049;SDS011;57391;51.306;22.680;2023-03-31T15:22:12;8.00;;;3.50;;
70049;SDS011;57391;51.306;22.680;2023-03-31T15:24:44;4.90;;;2.10;;
70049;SDS011;57391;51.306;22.680;2023-03-31T15:27:31;5.20;;;2.20;;
70049;SDS011;57391;51.306;22.680;2023-03-31T15:30:07;5.40;;;2.50;;
70049;SDS011;57391;51.306;22.680;2023-03-31T15:32:40;6.40;;;2.30;;
70049;SDS011;57391;51.306;22.680;2023-03-31T15:35:19;7.20;;;2.90;;
70049;SDS011;57391;51.306;22.680;2023-03-31T15:37:56;7.50;;;3.50;;
70049;SDS011;57391;51.306;22.680;2023-03-31T15:40:30;7.30;;;3.30;;
70049;SDS011;57391;51.306;22.680;2023-03-31T15:43:31;8.20;;;3.00;;
70049;SDS011;57391;51.306;22.680;2023-03-31T15:46:38;7.50;;;3.10;;
70049;SDS011;57391;51.306;22.680;2023-03-31T15:49:20;6.80;;;3.30;;
70049;SDS011;57391;51.306;22.680;2023-03-31T15:51:50;9.90;;;4.10;;
70049;SDS011;57391;51.306;22.680;2023-03-31T15:54:37;7.10;;;3.70;;
70049;SDS011;57391;51.306;22.680;2023-03-31T15:57:08;9.60;;;3.70;;
70049;SDS011;57391;51.306;22.680;2023-03-31T15:59:45;9.60;;;4.20;;
70049;SDS011;57391;51.306;22.680;2023-03-31T16:02:25;7.70;;;4.10;;
70049;SDS011;57391;51.306;22.680;2023-03-31T16:05:04;8.20;;;4.00;;
70049;SDS011;57391;51.306;22.680;2023-03-31T16:07:33;8.40;;;4.20;;
70049;SDS011;57391;51.306;22.680;2023-03-31T16:10:09;10.60;;;4.90;;
70049;SDS011;57391;51.306;22.680;2023-03-31T16:15:27;7.10;;;3.20;;
70049;SDS011;57391;51.306;22.680;2023-03-31T16:18:12;9.10;;;4.00;;
70049;SDS011;57391;51.306;22.680;2023-03-31T16:20:49;10.20;;;4.60;;
70049;SDS011;57391;51.306;22.680;2023-03-31T16:23:23;28.90;;;10.90;;
70049;SDS011;57391;51.306;22.680;2023-03-31T16:25:53;26.30;;;9.80;;
70049;SDS011;57391;51.306;22.680;2023-03-31T16:28:26;18.50;;;7.00;;
70049;SDS011;57391;51.306;22.680;2023-03-31T16:30:56;10.30;;;5.50;;
70049;SDS011;57391;51.306;22.680;2023-03-31T16:33:28;13.20;;;5.70;;
70049;SDS011;57391;51.306;22.680;2023-03-31T16:36:11;11.10;;;5.20;;
70049;SDS011;57391;51.306;22.680;2023-03-31T16:39:27;46.00;;;18.10;;
70049;SDS011;57391;51.306;22.680;2023-03-31T16:41:55;59.70;;;21.10;;
70049;SDS011;57391;51.306;22.680;2023-03-31T16:44:22;70.20;;;22.20;;
70049;SDS011;57391;51.306;22.680;2023-03-31T16:46:49;34.10;;;13.40;;
70049;SDS011;57391;51.306;22.680;2023-03-31T16:49:16;24.30;;;9.50;;
70049;SDS011;57391;51.306;22.680;2023-03-31T16:51:44;18.80;;;7.90;;
70049;SDS011;57391;51.306;22.680;2023-03-31T16:54:11;14.10;;;7.30;;
70049;SDS011;57391;51.306;22.680;2023-03-31T16:56:38;15.90;;;8.50;;
70049;SDS011;57391;51.306;22.680;2023-03-31T16:59:05;32.60;;;13.40;;
70049;SDS011;57391;51.306;22.680;2023-03-31T17:01:34;46.90;;;20.60;;
70049;SDS011;57391;51.306;22.680;2023-03-31T17:04:58;64.90;;;25.40;;
70049;SDS011;57391;51.306;22.680;2023-03-31T17:07:29;58.00;;;23.50;;
70049;SDS011;57391;51.306;22.680;2023-03-31T17:09:56;55.10;;;24.50;;
70049;SDS011;57391;51.306;22.680;2023-03-31T17:12:25;59.80;;;26.40;;
70049;SDS011;57391;51.306;22.680;2023-03-31T17:14:52;66.60;;;30.20;;
70049;SDS011;57391;51.306;22.680;2023-03-31T17:17:19;99.90;;;41.90;;
70049;SDS011;57391;51.306;22.680;2023-03-31T17:19:46;72.20;;;32.60;;
70049;SDS011;57391;51.306;22.680;2023-03-31T17:22:13;56.80;;;26.50;;
70049;SDS011;57391;51.306;22.680;2023-03-31T17:24:41;45.50;;;22.70;;
70049;SDS011;57391;51.306;22.680;2023-03-31T17:27:08;45.10;;;22.30;;
70049;SDS011;57391;51.306;22.680;2023-03-31T17:29:35;46.20;;;22.80;;
70049;SDS011;57391;51.306;22.680;2023-03-31T17:32:02;48.50;;;23.90;;
70049;SDS011;57391;51.306;22.680;2023-03-31T17:34:33;44.30;;;22.30;;
70049;SDS011;57391;51.306;22.680;2023-03-31T17:37:18;38.00;;;19.90;;
70049;SDS011;57391;51.306;22.680;2023-03-31T17:39:46;35.10;;;19.00;;
70049;SDS011;57391;51.306;22.680;2023-03-31T17:42:19;37.90;;;18.70;;
70049;SDS011;57391;51.306;22.680;2023-03-31T17:44:46;36.50;;;18.80;;
70049;SDS011;57391;51.306;22.680;2023-03-31T17:47:16;37.10;;;19.60;;
70049;SDS011;57391;51.306;22.680;2023-03-31T17:49:46;32.70;;;18.00;;
70049;SDS011;57391;51.306;22.680;2023-03-31T17:52:13;36.40;;;18.30;;
70049;SDS011;57391;51.306;22.680;2023-03-31T17:54:40;62.30;;;31.40;;
70049;SDS011;57391;51.306;22.680;2023-03-31T17:57:08;57.40;;;28.10;;
70049;SDS011;57391;51.306;22.680;2023-03-31T17:59:35;51.50;;;26.40;;
70049;SDS011;57391;51.306;22.680;2023-03-31T18:02:02;43.80;;;24.00;;